Time;durP1;ratioP1;P1;durP2;ratioP2;P2;SDS_P1;SDS_P2;PMS_P1;PMS_P2;Temp;Humidity;BMP_temperature;BMP_pressure;BME280_temperature;BME280_humidity;BME280_pressure;Samples;Min_cycle;Max_cycle;Signal;HPM_P1;HPM_P2
2022/09/03 00:02:23;;;;;;;;;;;20.10;50.90;;;;;;5124249;27;20374;-46
2022/09/03 00:04:56;;;;;;;;;;;21.30;48.60;;;;;;5140293;27;20305;-45
2022/09/03 00:07:27;;;;;;;;;;;21.30;47.70;;;;;;5140659;27;19923;-47
2022/09/03 00:09:55;;;;;;;;;;;20.40;48.50;;;;;;5127612;27;20491;-46
2022/09/03 00:12:23;;;;;;;;;;;19.90;48.60;;;;;;5122181;27;19937;-44
2022/09/03 00:14:50;;;;;;;;;;;19.70;48.40;;;;;;5122393;27;19923;-48
2022/09/03 00:17:17;;;;;;;;;;;20.30;50.60;;;;;;5146114;27;19928;-48
2022/09/03 00:19:45;;;;;;;;;;;21.30;48.60;;;;;;5136961;27;19927;-46
2022/09/03 00:22:16;;;;;;;;;;;21.50;47.30;;;;;;5129343;27;19927;-46
2022/09/03 00:24:42;;;;;;;;;;;20.40;48.60;;;;;;5144281;27;20019;-45
2022/09/03 00:27:12;;;;;;;;;;;20.00;48.70;;;;;;5144108;27;19923;-44
2022/09/03 00:29:38;;;;;;;;;;;19.70;48.60;;;;;;5131114;27;20018;-44
2022/09/03 00:32:06;;;;;;;;;;;20.10;50.70;;;;;;5125458;27;19925;-47
2022/09/03 00:34:39;;;;;;;;;;;21.10;49.30;;;;;;5125465;27;19926;-45
2022/09/03 00:37:06;;;;;;;;;;;21.50;47.60;;;;;;5128782;27;19934;-47
2022/09/03 00:39:32;;;;;;;;;;;20.30;48.90;;;;;;5141531;27;19927;-45
2022/09/03 00:42:05;;;;;;;;;;;19.90;48.90;;;;;;5143133;27;19934;-46
2022/09/03 00:44:47;;;;;;;;;;;19.80;48.70;;;;;;5149243;27;19931;-46
2022/09/03 00:47:17;;;;;;;;;;;20.10;51.50;;;;;;5143937;27;19931;-45
2022/09/03 00:50:03;;;;;;;;;;;21.30;49.10;;;;;;5143906;27;19935;-46
2022/09/03 00:52:38;;;;;;;;;;;21.30;48.00;;;;;;5149054;27;20031;-46
2022/09/03 00:55:08;;;;;;;;;;;20.40;48.60;;;;;;5123875;27;19931;-46
2022/09/03 00:57:52;;;;;;;;;;;19.80;49.10;;;;;;5119912;27;20202;-45
2022/09/03 01:00:19;;;;;;;;;;;19.80;48.50;;;;;;5148820;27;20013;-48
2022/09/03 01:02:48;;;;;;;;;;;20.50;50.90;;;;;;5143274;27;19927;-46
2022/09/03 01:05:17;;;;;;;;;;;21.50;48.60;;;;;;5143243;27;19923;-46
2022/09/03 01:07:45;;;;;;;;;;;21.00;48.50;;;;;;5148846;27;20601;-45
2022/09/03 01:10:14;;;;;;;;;;;20.30;49.30;;;;;;5143377;27;19927;-44
2022/09/03 01:12:59;;;;;;;;;;;20.00;48.90;;;;;;5147247;27;19923;-54
2022/09/03 01:15:30;;;;;;;;;;;19.70;50.50;;;;;;5144347;27;19939;-47
2022/09/03 01:18:05;;;;;;;;;;;20.80;50.50;;;;;;5122908;27;20048;-45
2022/09/03 01:20:33;;;;;;;;;;;21.80;48.20;;;;;;5144356;27;20029;-51
2022/09/03 01:23:19;;;;;;;;;;;20.80;49.00;;;;;;5148537;27;20426;-46
2022/09/03 01:25:45;;;;;;;;;;;20.10;49.30;;;;;;5143186;27;20370;-45
2022/09/03 01:28:12;;;;;;;;;;;19.70;49.20;;;;;;5146339;27;19923;-52
2022/09/03 01:30:47;;;;;;;;;;;19.70;48.70;;;;;;5146230;27;20305;-46
2022/09/03 01:33:19;;;;;;;;;;;20.30;51.60;;;;;;5119750;27;19991;-46
2022/09/03 01:35:45;;;;;;;;;;;21.30;49.90;;;;;;5128904;27;19923;-44
2022/09/03 01:38:15;;;;;;;;;;;21.30;48.60;;;;;;5142797;27;19930;-47
2022/09/03 01:42:12;;;;;;;;;;;20.30;49.70;;;;;;5142937;27;20290;-46
2022/09/03 01:43:56;;;;;;;;;;;19.90;49.40;;;;;;5143581;27;19929;-50
2022/09/03 01:46:26;;;;;;;;;;;19.90;50.40;;;;;;5148033;27;19923;-48
2022/09/03 01:48:52;;;;;;;;;;;20.80;51.10;;;;;;5124282;27;19933;-49
2022/09/03 01:51:18;;;;;;;;;;;21.80;48.60;;;;;;5126184;27;19968;-50
2022/09/03 01:53:51;;;;;;;;;;;20.80;49.50;;;;;;5141276;27;20317;-45
2022/09/03 01:56:36;;;;;;;;;;;20.00;49.70;;;;;;5142414;27;19933;-45
2022/09/03 01:59:05;;;;;;;;;;;19.80;49.80;;;;;;5129557;27;19927;-46
2022/09/03 02:01:32;;;;;;;;;;;20.20;51.80;;;;;;5124855;27;19926;-45
2022/09/03 02:03:58;;;;;;;;;;;21.10;50.40;;;;;;5122664;27;19923;-49
2022/09/03 02:06:25;;;;;;;;;;;21.50;48.60;;;;;;5129843;27;19927;-47
2022/09/03 02:08:51;;;;;;;;;;;20.60;49.40;;;;;;5139897;27;20533;-45
2022/09/03 02:11:17;;;;;;;;;;;20.00;49.50;;;;;;5139723;27;19927;-45
2022/09/03 02:13:44;;;;;;;;;;;19.80;48.80;;;;;;5147528;27;19938;-46
2022/09/03 02:16:30;;;;;;;;;;;19.80;51.40;;;;;;5142375;27;19966;-48
2022/09/03 02:19:06;;;;;;;;;;;20.70;51.50;;;;;;5124079;27;20387;-46
2022/09/03 02:21:33;;;;;;;;;;;21.80;48.80;;;;;;5129189;27;19934;-45
2022/09/03 02:23:59;;;;;;;;;;;20.70;49.50;;;;;;5123537;27;19929;-45
2022/09/03 02:26:25;;;;;;;;;;;20.20;49.60;;;;;;5142167;27;19927;-47
2022/09/03 02:28:52;;;;;;;;;;;19.90;49.10;;;;;;5143133;27;19930;-50
2022/09/03 02:31:17;;;;;;;;;;;19.90;51.80;;;;;;5122818;27;19954;-47
2022/09/03 02:33:44;;;;;;;;;;;20.90;51.20;;;;;;5147508;27;19923;-46
2022/09/03 02:36:10;;;;;;;;;;;21.70;48.70;;;;;;5142004;27;19964;-44
2022/09/03 02:38:36;;;;;;;;;;;20.60;49.50;;;;;;5141747;27;19927;-44
2022/09/03 02:41:02;;;;;;;;;;;19.80;50.00;;;;;;5147483;27;20414;-46
2022/09/03 02:43:34;;;;;;;;;;;19.80;50.70;;;;;;5141694;27;19931;-47
2022/09/03 02:46:00;;;;;;;;;;;20.60;51.70;;;;;;5118821;27;20080;-47
2022/09/03 02:48:26;;;;;;;;;;;21.70;48.80;;;;;;5145301;27;19949;-46
2022/09/03 02:50:52;;;;;;;;;;;20.70;49.50;;;;;;5141346;27;19923;-45
2022/09/03 02:53:18;;;;;;;;;;;20.20;49.30;;;;;;5127596;27;20197;-51
2022/09/03 02:55:44;;;;;;;;;;;19.80;49.40;;;;;;5143215;27;19923;-45
2022/09/03 02:58:10;;;;;;;;;;;19.60;48.80;;;;;;5141643;27;20391;-48
2022/09/03 03:00:36;;;;;;;;;;;20.30;52.10;;;;;;5146918;27;20283;-46
2022/09/03 03:03:02;;;;;;;;;;;21.30;50.00;;;;;;5141454;27;19945;-47
2022/09/03 03:05:35;;;;;;;;;;;21.40;48.70;;;;;;5136929;27;19923;-48
2022/09/03 03:08:01;;;;;;;;;;;20.40;49.60;;;;;;5127718;27;20440;-46
2022/09/03 03:10:27;;;;;;;;;;;19.70;50.00;;;;;;5141288;27;19923;-46
2022/09/03 03:12:53;;;;;;;;;;;19.70;49.10;;;;;;5141443;27;20316;-46
2022/09/03 03:15:19;;;;;;;;;;;20.20;52.10;;;;;;5146793;27;19927;-47
2022/09/03 03:17:45;;;;;;;;;;;21.20;50.30;;;;;;5141296;27;19924;-46
2022/09/03 03:20:11;;;;;;;;;;;21.70;48.30;;;;;;5146991;27;20051;-47
2022/09/03 03:22:37;;;;;;;;;;;20.40;49.70;;;;;;5138536;27;20228;-46
2022/09/03 03:25:04;;;;;;;;;;;19.90;49.60;;;;;;5139026;27;20374;-47
2022/09/03 03:27:30;;;;;;;;;;;19.80;49.20;;;;;;5128009;27;19934;-45
2022/09/03 03:29:56;;;;;;;;;;;19.90;51.80;;;;;;5141221;27;19927;-48
2022/09/03 03:32:22;;;;;;;;;;;20.90;50.90;;;;;;5141230;27;20209;-46
2022/09/03 03:34:48;;;;;;;;;;;21.80;48.40;;;;;;5146840;27;19934;-47
2022/09/03 03:37:14;;;;;;;;;;;20.60;49.60;;;;;;5141191;27;19923;-47
2022/09/03 03:39:40;;;;;;;;;;;19.90;49.90;;;;;;5146496;27;19988;-46
2022/09/03 03:42:05;;;;;;;;;;;19.70;49.40;;;;;;5136310;27;20294;-45
2022/09/03 03:44:31;;;;;;;;;;;19.70;48.90;;;;;;5139967;27;19947;-46
2022/09/03 03:46:57;;;;;;;;;;;20.10;52.20;;;;;;5146170;27;19927;-46
2022/09/03 03:49:23;;;;;;;;;;;21.20;50.50;;;;;;5141014;27;20341;-50
2022/09/03 03:51:48;;;;;;;;;;;21.70;48.60;;;;;;5141035;27;19923;-46
2022/09/03 03:54:14;;;;;;;;;;;20.40;49.80;;;;;;5146319;27;21974;-44
2022/09/03 03:56:40;;;;;;;;;;;20.00;49.40;;;;;;5143123;27;19934;-47
2022/09/03 03:59:06;;;;;;;;;;;19.70;49.10;;;;;;5146421;27;19923;-52
2022/09/03 04:01:31;;;;;;;;;;;20.00;51.90;;;;;;5143075;27;19927;-47
2022/09/03 04:03:58;;;;;;;;;;;20.90;51.20;;;;;;5144209;27;20018;-46
2022/09/03 04:06:24;;;;;;;;;;;21.70;48.80;;;;;;5150040;27;19923;-45
2022/09/03 04:08:50;;;;;;;;;;;20.60;49.70;;;;;;5144479;27;19930;-45
2022/09/03 04:11:17;;;;;;;;;;;19.80;50.00;;;;;;5144567;27;20034;-45
2022/09/03 04:13:43;;;;;;;;;;;19.90;49.30;;;;;;5149777;27;20025;-46
2022/09/03 04:16:13;;;;;;;;;;;20.20;52.30;;;;;;5144411;27;20366;-45
2022/09/03 04:18:39;;;;;;;;;;;21.20;50.80;;;;;;5139901;27;19930;-50
2022/09/03 04:21:05;;;;;;;;;;;21.50;49.00;;;;;;5148430;27;19929;-45
2022/09/03 04:23:32;;;;;;;;;;;20.30;50.10;;;;;;5143724;27;20014;-46
2022/09/03 04:25:57;;;;;;;;;;;20.00;49.60;;;;;;5149727;27;19923;-45
2022/09/03 04:28:23;;;;;;;;;;;19.60;49.80;;;;;;5144222;27;20413;-47
2022/09/03 04:30:49;;;;;;;;;;;20.20;52.60;;;;;;5144151;27;20290;-45
2022/09/03 04:33:15;;;;;;;;;;;21.20;50.80;;;;;;5149600;27;19923;-46
2022/09/03 04:35:40;;;;;;;;;;;21.30;49.20;;;;;;5142083;27;19923;-55
2022/09/03 04:38:06;;;;;;;;;;;20.30;50.30;;;;;;5140877;27;20677;-45
2022/09/03 04:40:32;;;;;;;;;;;19.80;49.90;;;;;;5148918;27;20269;-48
2022/09/03 04:42:58;;;;;;;;;;;19.70;49.40;;;;;;5143765;27;19923;-46
2022/09/03 04:45:24;;;;;;;;;;;20.00;52.40;;;;;;5149302;27;20335;-49
2022/09/03 04:47:59;;;;;;;;;;;20.90;51.90;;;;;;5143732;27;20014;-45
2022/09/03 04:50:26;;;;;;;;;;;21.70;49.50;;;;;;5143677;27;19923;-46
2022/09/03 04:52:55;;;;;;;;;;;20.60;50.30;;;;;;5149145;27;19956;-46
2022/09/03 04:55:21;;;;;;;;;;;19.90;50.20;;;;;;5139469;27;19931;-48
2022/09/03 04:57:47;;;;;;;;;;;19.60;50.00;;;;;;5142563;27;20367;-47
2022/09/03 05:00:13;;;;;;;;;;;20.30;53.00;;;;;;5148739;27;19927;-45
2022/09/03 05:02:39;;;;;;;;;;;21.30;51.00;;;;;;5143391;27;19926;-46
2022/09/03 05:05:05;;;;;;;;;;;21.30;49.70;;;;;;5143436;27;19931;-50
2022/09/03 05:07:37;;;;;;;;;;;20.30;50.40;;;;;;5148864;27;19923;-46
2022/09/03 05:10:06;;;;;;;;;;;19.80;50.10;;;;;;5143472;27;20014;-48
2022/09/03 05:12:32;;;;;;;;;;;19.80;51.20;;;;;;5146323;27;20021;-46
2022/09/03 05:15:04;;;;;;;;;;;20.60;53.00;;;;;;5140726;27;20041;-49
2022/09/03 05:17:29;;;;;;;;;;;21.50;50.50;;;;;;5143184;27;20570;-46
2022/09/03 05:19:55;;;;;;;;;;;20.80;50.50;;;;;;5148864;27;19923;-47
2022/09/03 05:22:21;;;;;;;;;;;20.20;50.30;;;;;;5143247;27;19923;-45
2022/09/03 05:24:47;;;;;;;;;;;19.70;50.50;;;;;;5143275;27;19930;-45
2022/09/03 05:27:15;;;;;;;;;;;19.80;51.70;;;;;;5148752;27;20046;-46
2022/09/03 05:29:44;;;;;;;;;;;20.70;52.70;;;;;;5143289;27;20013;-45
2022/09/03 05:32:11;;;;;;;;;;;21.70;50.50;;;;;;5138965;27;19975;-53
2022/09/03 05:34:37;;;;;;;;;;;20.80;50.40;;;;;;5147568;27;20297;-46
2022/09/03 05:37:03;;;;;;;;;;;20.20;50.20;;;;;;5142753;27;20375;-48
2022/09/03 05:39:29;;;;;;;;;;;19.90;50.20;;;;;;5148243;27;19927;-46
2022/09/03 05:41:54;;;;;;;;;;;19.90;51.30;;;;;;5142785;27;20019;-49
2022/09/03 05:44:22;;;;;;;;;;;20.60;53.10;;;;;;5142917;27;19923;-47
2022/09/03 05:46:47;;;;;;;;;;;21.60;50.80;;;;;;5148339;27;19923;-45
2022/09/03 05:49:13;;;;;;;;;;;20.80;50.40;;;;;;5140416;27;20035;-46
2022/09/03 05:51:39;;;;;;;;;;;20.30;50.30;;;;;;5140013;27;20057;-45
2022/09/03 05:54:07;;;;;;;;;;;19.90;50.10;;;;;;5147847;27;20286;-45
2022/09/03 05:56:34;;;;;;;;;;;19.70;49.90;;;;;;5138645;27;19927;-47
2022/09/03 05:59:01;;;;;;;;;;;20.30;53.10;;;;;;5147855;27;20392;-46
2022/09/03 06:01:28;;;;;;;;;;;21.20;52.00;;;;;;5142541;27;19937;-46
2022/09/03 06:04:01;;;;;;;;;;;21.50;50.10;;;;;;5142576;27;20002;-48
2022/09/03 06:06:27;;;;;;;;;;;20.60;50.90;;;;;;5147812;27;19923;-45
2022/09/03 06:08:57;;;;;;;;;;;20.10;50.50;;;;;;5138314;27;20010;-48
2022/09/03 06:11:26;;;;;;;;;;;19.70;50.80;;;;;;5141335;27;19929;-48
2022/09/03 06:13:53;;;;;;;;;;;20.00;53.30;;;;;;5147856;27;20430;-48
2022/09/03 06:16:18;;;;;;;;;;;20.90;53.00;;;;;;5142534;27;19923;-47
2022/09/03 06:18:44;;;;;;;;;;;21.60;50.70;;;;;;5141697;27;19934;-44
2022/09/03 06:21:10;;;;;;;;;;;20.60;51.20;;;;;;5147722;27;20066;-44
2022/09/03 06:23:36;;;;;;;;;;;20.00;51.00;;;;;;5142024;27;19934;-47
2022/09/03 06:26:05;;;;;;;;;;;19.80;50.20;;;;;;5145294;27;19966;-46
2022/09/03 06:28:33;;;;;;;;;;;20.00;53.90;;;;;;5139575;27;19927;-45
2022/09/03 06:31:01;;;;;;;;;;;21.00;53.00;;;;;;5141784;27;20364;-45
2022/09/03 06:33:29;;;;;;;;;;;21.60;50.80;;;;;;5147525;27;20349;-47
2022/09/03 06:35:58;;;;;;;;;;;20.70;51.00;;;;;;5142128;27;19923;-47
2022/09/03 06:38:24;;;;;;;;;;;20.00;51.20;;;;;;5142113;27;20018;-44
2022/09/03 06:40:51;;;;;;;;;;;19.80;50.30;;;;;;5147462;27;19927;-46
2022/09/03 06:43:17;;;;;;;;;;;20.40;54.10;;;;;;5141868;27;19927;-47
2022/09/03 06:45:43;;;;;;;;;;;21.40;52.20;;;;;;5138005;27;19923;-51
2022/09/03 06:48:08;;;;;;;;;;;21.20;51.00;;;;;;5146348;27;19976;-45
2022/09/03 06:50:34;;;;;;;;;;;20.40;51.10;;;;;;5141660;27;20339;-46
2022/09/03 06:53:00;;;;;;;;;;;20.20;50.30;;;;;;5147031;27;20286;-44
2022/09/03 06:55:26;;;;;;;;;;;19.70;50.50;;;;;;5141785;27;19923;-47
2022/09/03 06:57:55;;;;;;;;;;;20.00;53.60;;;;;;5141755;27;20018;-46
2022/09/03 07:00:22;;;;;;;;;;;20.80;53.90;;;;;;5147276;27;20470;-47
2022/09/03 07:02:47;;;;;;;;;;;21.80;51.70;;;;;;5139143;27;20386;-45
2022/09/03 07:05:13;;;;;;;;;;;20.80;51.70;;;;;;5138721;27;19934;-46
2022/09/03 07:07:39;;;;;;;;;;;20.20;51.50;;;;;;5146815;27;19949;-47
2022/09/03 07:10:05;;;;;;;;;;;19.80;51.10;;;;;;5141258;27;20371;-44
2022/09/03 07:12:36;;;;;;;;;;;19.60;51.20;;;;;;5146949;27;19927;-46
2022/09/03 07:15:02;;;;;;;;;;;20.40;54.90;;;;;;5141810;27;19923;-46
2022/09/03 07:17:28;;;;;;;;;;;21.40;53.30;;;;;;5123156;27;19934;-48
2022/09/03 07:19:53;;;;;;;;;;;21.30;52.00;;;;;;5147014;27;19934;-45
2022/09/03 07:22:19;;;;;;;;;;;20.50;51.80;;;;;;5137154;27;19952;-49
2022/09/03 07:24:46;;;;;;;;;;;20.10;51.40;;;;;;5140246;27;20627;-45
2022/09/03 07:27:12;;;;;;;;;;;19.80;51.10;;;;;;5146501;27;19941;-46
2022/09/03 07:29:38;;;;;;;;;;;20.00;54.10;;;;;;5140949;27;19927;-46
2022/09/03 07:32:03;;;;;;;;;;;20.90;54.90;;;;;;5147109;27;20371;-55
2022/09/03 07:34:29;;;;;;;;;;;21.70;53.00;;;;;;5147982;27;19969;-46
2022/09/03 07:36:55;;;;;;;;;;;20.80;52.60;;;;;;5144865;27;19923;-46
2022/09/03 07:39:21;;;;;;;;;;;20.20;52.10;;;;;;5148675;27;20018;-47
2022/09/03 07:41:47;;;;;;;;;;;19.90;51.30;;;;;;5141407;27;19933;-45
2022/09/03 07:44:14;;;;;;;;;;;20.10;54.30;;;;;;5144470;27;19930;-46
2022/09/03 07:46:40;;;;;;;;;;;20.90;55.30;;;;;;5150079;27;20030;-44
2022/09/03 07:49:06;;;;;;;;;;;21.80;52.90;;;;;;5144717;27;19927;-46
2022/09/03 07:51:33;;;;;;;;;;;20.80;52.50;;;;;;5144913;27;20046;-51
2022/09/03 07:54:00;;;;;;;;;;;20.20;52.00;;;;;;5150228;27;19927;-45
2022/09/03 07:56:26;;;;;;;;;;;20.00;51.20;;;;;;5144740;27;19934;-45
2022/09/03 07:58:54;;;;;;;;;;;19.50;51.40;;;;;;5146173;27;20022;-45
2022/09/03 08:01:20;;;;;;;;;;;20.10;55.90;;;;;;5143065;27;20431;-46
2022/09/03 08:03:46;;;;;;;;;;;20.90;56.00;;;;;;5125619;27;19927;-46
2022/09/03 08:06:12;;;;;;;;;;;21.80;53.70;;;;;;5149766;27;20025;-45
2022/09/03 08:08:39;;;;;;;;;;;20.80;53.20;;;;;;5125975;27;20054;-46
2022/09/03 08:11:09;;;;;;;;;;;20.30;52.80;;;;;;5144409;27;20426;-47
2022/09/03 08:13:36;;;;;;;;;;;20.00;51.80;;;;;;5149954;27;19930;-44
2022/09/03 08:16:03;;;;;;;;;;;19.80;52.10;;;;;;5142853;27;19923;-47
2022/09/03 08:18:34;;;;;;;;;;;20.40;56.50;;;;;;5144593;27;19978;-54
2022/09/03 08:20:59;;;;;;;;;;;21.30;55.80;;;;;;5145864;27;19949;-48
2022/09/03 08:23:26;;;;;;;;;;;21.40;53.50;;;;;;5143742;27;19935;-44
2022/09/03 08:26:01;;;;;;;;;;;20.30;53.40;;;;;;5149692;27;20030;-46
2022/09/03 08:28:27;;;;;;;;;;;20.20;52.00;;;;;;5144190;27;20425;-45
2022/09/03 08:30:54;;;;;;;;;;;19.80;51.90;;;;;;5144154;27;19923;-46
2022/09/03 08:33:35;;;;;;;;;;;19.90;53.20;;;;;;5149600;27;20370;-44
2022/09/03 08:36:04;;;;;;;;;;;20.60;57.00;;;;;;5139681;27;20014;-48
2022/09/03 08:38:31;;;;;;;;;;;21.50;55.20;;;;;;5143104;27;19931;-45
2022/09/03 08:41:04;;;;;;;;;;;21.10;53.50;;;;;;5149248;27;19967;-45
2022/09/03 08:43:30;;;;;;;;;;;20.30;53.10;;;;;;5143772;27;19927;-44
2022/09/03 08:45:58;;;;;;;;;;;20.00;52.10;;;;;;5124440;27;20014;-45
2022/09/03 08:48:24;;;;;;;;;;;19.80;51.90;;;;;;5149232;27;20313;-45
2022/09/03 08:50:54;;;;;;;;;;;20.10;55.40;;;;;;5125275;27;20273;-45
2022/09/03 08:53:40;;;;;;;;;;;20.90;56.90;;;;;;5126307;27;19927;-50
2022/09/03 08:56:06;;;;;;;;;;;21.80;54.90;;;;;;5127144;27;20313;-45
2022/09/03 08:58:32;;;;;;;;;;;20.80;53.60;;;;;;5143253;27;19927;-45
2022/09/03 09:01:17;;;;;;;;;;;20.30;53.20;;;;;;5149001;27;19936;-45
2022/09/03 09:03:56;;;;;;;;;;;20.10;52.10;;;;;;5148842;27;19923;-47
2022/09/03 09:06:36;;;;;;;;;;;19.80;51.60;;;;;;5123624;27;19927;-46
2022/09/03 09:09:20;;;;;;;;;;;20.20;56.10;;;;;;5124989;27;19927;-46
2022/09/03 09:11:54;;;;;;;;;;;21.00;57.00;;;;;;5146104;27;20317;-46
2022/09/03 09:14:30;;;;;;;;;;;21.70;54.80;;;;;;5122680;27;20015;-47
2022/09/03 09:17:19;;;;;;;;;;;20.80;54.00;;;;;;5143085;27;20191;-44
2022/09/03 09:19:51;;;;;;;;;;;20.30;52.90;;;;;;5134526;27;19928;-45
2022/09/03 09:22:28;;;;;;;;;;;20.00;52.30;;;;;;5143190;27;20267;-46
2022/09/03 09:24:54;;;;;;;;;;;19.80;51.90;;;;;;5124811;27;20078;-47
2022/09/03 09:27:19;;;;;;;;;;;20.00;56.10;;;;;;5148635;27;20025;-46
2022/09/03 09:29:47;;;;;;;;;;;20.80;57.70;;;;;;5140562;27;19927;-46
2022/09/03 09:32:13;;;;;;;;;;;21.70;56.20;;;;;;5140336;27;19927;-46
2022/09/03 09:34:40;;;;;;;;;;;20.80;55.00;;;;;;5148224;27;19930;-48
2022/09/03 09:37:07;;;;;;;;;;;20.40;53.80;;;;;;5124680;27;20301;-45
2022/09/03 09:39:33;;;;;;;;;;;20.00;52.90;;;;;;5129592;27;19961;-47
2022/09/03 09:42:09;;;;;;;;;;;19.90;51.90;;;;;;5142834;27;19927;-46
2022/09/03 09:44:36;;;;;;;;;;;19.80;51.70;;;;;;5143109;27;20354;-46
2022/09/03 09:47:06;;;;;;;;;;;20.10;55.90;;;;;;5129081;27;19930;-46
2022/09/03 09:49:39;;;;;;;;;;;20.90;57.60;;;;;;5138226;27;20033;-46
2022/09/03 09:52:10;;;;;;;;;;;21.80;56.20;;;;;;5141862;27;20014;-46
2022/09/03 09:54:36;;;;;;;;;;;20.90;54.60;;;;;;5128770;27;19927;-46
2022/09/03 09:57:03;;;;;;;;;;;20.40;53.40;;;;;;5142565;27;19927;-47
2022/09/03 09:59:29;;;;;;;;;;;20.20;52.50;;;;;;5142822;27;19923;-45
2022/09/03 10:02:22;;;;;;;;;;;19.90;51.90;;;;;;5127772;27;19979;-48
2022/09/03 10:04:48;;;;;;;;;;;20.10;56.90;;;;;;5138332;27;19982;-45
2022/09/03 10:07:22;;;;;;;;;;;21.10;57.80;;;;;;5139348;27;20277;-47
2022/09/03 10:09:58;;;;;;;;;;;21.80;55.50;;;;;;5146343;27;19923;-46
2022/09/03 10:12:28;;;;;;;;;;;20.90;54.10;;;;;;5142230;27;20413;-45
2022/09/03 10:14:55;;;;;;;;;;;20.30;53.50;;;;;;5123806;27;20656;-46
2022/09/03 10:17:23;;;;;;;;;;;20.00;52.60;;;;;;5147901;27;19931;-47
2022/09/03 10:22:41;;;;;;;;;;;19.90;52.50;;;;;;5125617;27;20273;-45
2022/09/03 10:25:07;;;;;;;;;;;20.60;57.90;;;;;;5144663;27;20405;-47
2022/09/03 10:27:34;;;;;;;;;;;21.40;57.20;;;;;;5121373;27;19925;-46
2022/09/03 10:30:00;;;;;;;;;;;21.50;54.80;;;;;;5147365;27;19987;-48
2022/09/03 10:32:30;;;;;;;;;;;20.80;53.80;;;;;;5142351;27;19930;-46
2022/09/03 10:35:00;;;;;;;;;;;20.30;53.00;;;;;;5141919;27;19927;-47
2022/09/03 10:37:39;;;;;;;;;;;20.00;52.20;;;;;;5128902;27;19923;-46
2022/09/03 10:40:09;;;;;;;;;;;19.80;52.00;;;;;;5141222;27;21300;-47
2022/09/03 10:42:36;;;;;;;;;;;20.20;57.50;;;;;;5141438;27;20016;-48
2022/09/03 10:45:14;;;;;;;;;;;21.00;57.90;;;;;;5143070;27;19934;-44
2022/09/03 10:47:59;;;;;;;;;;;21.70;55.30;;;;;;5141380;27;19933;-46
2022/09/03 10:50:25;;;;;;;;;;;20.70;54.40;;;;;;5141798;27;19931;-46
2022/09/03 10:52:51;;;;;;;;;;;20.20;53.40;;;;;;5129071;27;19926;-46
2022/09/03 10:55:17;;;;;;;;;;;20.20;52.30;;;;;;5141904;27;19930;-47
2022/09/03 10:57:45;;;;;;;;;;;19.80;52.30;;;;;;5141730;27;20395;-47
2022/09/03 11:00:11;;;;;;;;;;;19.80;53.30;;;;;;5147211;27;19930;-47
2022/09/03 11:02:40;;;;;;;;;;;20.50;57.80;;;;;;5119149;27;20018;-45
2022/09/03 11:05:22;;;;;;;;;;;21.30;57.60;;;;;;5139883;27;19927;-46
2022/09/03 11:07:54;;;;;;;;;;;21.60;55.40;;;;;;5128684;27;19938;-48
2022/09/03 11:10:40;;;;;;;;;;;20.70;54.50;;;;;;5141632;27;20289;-46
2022/09/03 11:13:12;;;;;;;;;;;20.30;53.10;;;;;;5141756;27;19970;-46
2022/09/03 11:15:56;;;;;;;;;;;20.00;52.70;;;;;;5146959;27;20275;-46
2022/09/03 11:18:29;;;;;;;;;;;20.00;52.00;;;;;;5141450;27;20354;-47
2022/09/03 11:20:56;;;;;;;;;;;20.40;58.10;;;;;;5119202;27;20347;-49
2022/09/03 11:23:23;;;;;;;;;;;21.30;57.70;;;;;;5145268;27;20297;-44
2022/09/03 11:25:50;;;;;;;;;;;21.40;55.40;;;;;;5120939;27;19930;-46
2022/09/03 11:28:20;;;;;;;;;;;20.70;54.70;;;;;;5123888;27;20025;-52
2022/09/03 11:30:48;;;;;;;;;;;20.30;53.40;;;;;;5146863;27;19953;-44
2022/09/03 11:33:16;;;;;;;;;;;20.20;52.20;;;;;;5141180;27;19923;-45
2022/09/03 11:35:42;;;;;;;;;;;19.90;51.90;;;;;;5127407;27;19934;-45
2022/09/03 11:38:14;;;;;;;;;;;20.00;55.10;;;;;;5139564;27;20374;-48
2022/09/03 11:40:42;;;;;;;;;;;20.70;58.60;;;;;;5138051;27;19934;-46
2022/09/03 11:43:12;;;;;;;;;;;21.50;57.40;;;;;;5127707;27;19930;-45
2022/09/03 11:45:38;;;;;;;;;;;21.20;55.20;;;;;;5122577;27;19927;-44
2022/09/03 11:48:36;;;;;;;;;;;20.70;54.10;;;;;;5141031;27;19941;-46
2022/09/03 11:51:02;;;;;;;;;;;20.30;53.30;;;;;;5089392;27;20391;-47
2022/09/03 11:53:35;;;;;;;;;;;20.00;52.20;;;;;;5141003;27;19934;-44
2022/09/03 11:56:01;;;;;;;;;;;19.90;52.00;;;;;;5140675;27;20030;-51
2022/09/03 11:58:27;;;;;;;;;;;20.30;57.20;;;;;;5141860;27;20271;-48
2022/09/03 12:00:53;;;;;;;;;;;21.00;58.60;;;;;;5140418;27;19971;-47
2022/09/03 12:03:29;;;;;;;;;;;21.80;56.90;;;;;;5140720;27;20313;-47
2022/09/03 12:05:55;;;;;;;;;;;20.80;55.70;;;;;;5146409;27;20289;-45
2022/09/03 12:08:28;;;;;;;;;;;20.50;53.70;;;;;;5140653;27;19927;-46
2022/09/03 12:11:17;;;;;;;;;;;20.20;52.80;;;;;;5122356;27;19927;-50
2022/09/03 12:13:54;;;;;;;;;;;20.00;52.50;;;;;;5132816;27;19927;-48
2022/09/03 12:16:23;;;;;;;;;;;19.90;53.60;;;;;;5118159;27;19923;-44
2022/09/03 12:18:51;;;;;;;;;;;20.50;59.10;;;;;;5143161;27;20101;-51
2022/09/03 12:21:17;;;;;;;;;;;21.30;58.50;;;;;;5149472;27;19933;-45
2022/09/03 12:23:48;;;;;;;;;;;21.30;56.10;;;;;;5143930;27;19962;-47
2022/09/03 12:26:14;;;;;;;;;;;20.60;55.00;;;;;;5147720;27;19972;-53
2022/09/03 12:28:47;;;;;;;;;;;20.20;53.90;;;;;;5128268;27;19930;-47
2022/09/03 12:31:21;;;;;;;;;;;20.10;53.00;;;;;;5144267;27;19923;-48
2022/09/03 12:33:47;;;;;;;;;;;19.90;52.40;;;;;;5146371;27;20063;-49
2022/09/03 12:36:13;;;;;;;;;;;19.90;54.40;;;;;;5141865;27;19923;-50
2022/09/03 12:38:39;;;;;;;;;;;20.60;59.00;;;;;;5143884;27;19979;-46
2022/09/03 12:41:18;;;;;;;;;;;21.30;59.40;;;;;;5149420;27;19931;-45
2022/09/03 12:43:48;;;;;;;;;;;21.70;56.90;;;;;;5125401;27;19923;-45
2022/09/03 12:46:14;;;;;;;;;;;20.70;55.80;;;;;;5143879;27;19933;-48
2022/09/03 12:48:45;;;;;;;;;;;20.30;54.50;;;;;;5149287;27;19927;-46
2022/09/03 12:51:11;;;;;;;;;;;20.00;53.50;;;;;;5143688;27;20319;-47
2022/09/03 12:53:37;;;;;;;;;;;19.70;53.30;;;;;;5139306;27;19999;-48
2022/09/03 12:56:03;;;;;;;;;;;19.90;57.00;;;;;;5148290;27;19930;-46
2022/09/03 12:58:42;;;;;;;;;;;20.70;60.40;;;;;;5143653;27;19929;-45
2022/09/03 13:01:11;;;;;;;;;;;21.40;60.20;;;;;;5127063;27;20022;-54
2022/09/03 13:03:43;;;;;;;;;;;21.20;57.90;;;;;;5149168;27;19931;-49
2022/09/03 13:06:09;;;;;;;;;;;20.60;55.70;;;;;;5143803;27;19923;-46
2022/09/03 13:08:40;;;;;;;;;;;20.30;54.40;;;;;;5129789;27;19923;-45
2022/09/03 13:11:06;;;;;;;;;;;19.90;53.40;;;;;;5121409;27;20601;-47
2022/09/03 13:13:32;;;;;;;;;;;19.90;54.90;;;;;;5141708;27;19930;-46
2022/09/03 13:15:58;;;;;;;;;;;20.40;61.20;;;;;;5148557;27;19946;-45
2022/09/03 13:18:29;;;;;;;;;;;21.10;61.70;;;;;;5143433;27;20021;-46
2022/09/03 13:21:15;;;;;;;;;;;21.60;59.70;;;;;;5143343;27;19923;-46
2022/09/03 13:23:49;;;;;;;;;;;20.60;57.30;;;;;;5148667;27;19993;-47
2022/09/03 13:26:33;;;;;;;;;;;20.20;55.70;;;;;;5143346;27;20259;-45
2022/09/03 13:28:59;;;;;;;;;;;20.00;54.20;;;;;;5139226;27;19933;-45
2022/09/03 13:31:28;;;;;;;;;;;19.80;53.50;;;;;;5146540;27;20018;-47
2022/09/03 13:33:56;;;;;;;;;;;20.00;58.40;;;;;;5124280;27;19923;-50
2022/09/03 13:36:30;;;;;;;;;;;20.70;62.00;;;;;;5123379;27;20176;-46
2022/09/03 13:38:57;;;;;;;;;;;21.50;61.60;;;;;;5129501;27;19962;-44
2022/09/03 13:41:42;;;;;;;;;;;21.10;58.60;;;;;;5143086;27;20297;-46
2022/09/03 13:44:10;;;;;;;;;;;20.70;56.60;;;;;;5143000;27;19923;-46
2022/09/03 13:46:40;;;;;;;;;;;20.20;54.90;;;;;;5147205;27;20394;-51
2022/09/03 13:52:02;;;;;;;;;;;20.00;58.80;;;;;;5126688;27;19922;-47
2022/09/03 13:54:30;;;;;;;;;;;20.90;62.70;;;;;;5148128;27;20426;-46
2022/09/03 13:57:17;;;;;;;;;;;21.60;61.60;;;;;;5124216;27;20383;-46
2022/09/03 13:59:50;;;;;;;;;;;21.00;58.30;;;;;;5123912;27;20065;-46
2022/09/03 14:02:35;;;;;;;;;;;20.30;55.90;;;;;;5129576;27;19923;-47
2022/09/03 14:05:15;;;;;;;;;;;20.00;54.90;;;;;;5141162;27;19927;-51
2022/09/03 14:07:43;;;;;;;;;;;19.90;53.70;;;;;;5120369;27;20028;-46
2022/09/03 14:10:20;;;;;;;;;;;20.00;54.80;;;;;;5129282;27;19927;-46
2022/09/03 14:12:48;;;;;;;;;;;20.40;61.80;;;;;;5142448;27;19923;-47
2022/09/03 14:15:28;;;;;;;;;;;21.10;63.10;;;;;;5124162;27;19938;-46
2022/09/03 14:18:12;;;;;;;;;;;21.60;60.90;;;;;;5147784;27;20022;-46
2022/09/03 14:20:46;;;;;;;;;;;20.70;58.00;;;;;;5142230;27;19924;-48
2022/09/03 14:23:25;;;;;;;;;;;20.30;55.50;;;;;;5141432;27;20013;-45
2022/09/03 14:25:54;;;;;;;;;;;20.00;54.60;;;;;;5126070;27;19927;-50
2022/09/03 14:28:23;;;;;;;;;;;20.00;53.30;;;;;;5140670;27;19974;-48
2022/09/03 14:30:51;;;;;;;;;;;20.20;61.40;;;;;;5142324;27;19947;-49
2022/09/03 14:33:17;;;;;;;;;;;21.00;63.10;;;;;;5147772;27;20309;-47
2022/09/03 14:36:09;;;;;;;;;;;21.70;62.00;;;;;;5142303;27;19927;-48